createdAt,value
2018-12-20T00:00:44.466Z,6.86
2018-12-20T00:03:12.880Z,6.85
2018-12-20T00:05:41.343Z,6.85
2018-12-20T00:08:09.587Z,6.85
2018-12-20T00:10:37.881Z,6.91
2018-12-20T00:13:06.156Z,6.88
2018-12-20T00:15:34.396Z,6.84
2018-12-20T00:18:02.974Z,6.88
2018-12-20T00:20:31.400Z,6.88
2018-12-20T00:22:59.601Z,6.89
2018-12-20T00:25:28.140Z,6.98
2018-12-20T00:27:56.398Z,6.92
2018-12-20T00:30:24.673Z,6.94
2018-12-20T00:32:52.974Z,6.98
2018-12-20T00:35:21.257Z,6.94
2018-12-20T00:37:49.501Z,6.96
2018-12-20T00:40:17.714Z,7.07
2018-12-20T00:42:45.904Z,7.05
2018-12-20T00:45:14.151Z,7.03
2018-12-20T00:47:42.457Z,6.97
2018-12-20T00:50:10.600Z,6.95
2018-12-20T00:52:38.917Z,6.86
2018-12-20T00:55:07.432Z,6.88
2018-12-20T00:57:35.835Z,6.81
2018-12-20T01:00:05.360Z,6.85
2018-12-20T01:02:33.836Z,6.87
2018-12-20T01:05:02.183Z,6.99
2018-12-20T01:07:30.519Z,7.02
2018-12-20T01:09:58.765Z,7.06
2018-12-20T01:12:26.957Z,6.97
2018-12-20T01:14:55.304Z,6.92
2018-12-20T01:17:25.622Z,7.01
2018-12-20T01:19:53.820Z,6.87
2018-12-20T01:22:22.010Z,6.90
2018-12-20T01:24:50.283Z,6.82
2018-12-20T01:27:18.671Z,6.82
2018-12-20T01:29:46.923Z,6.81
2018-12-20T01:32:15.259Z,6.81
2018-12-20T01:34:43.563Z,6.76
2018-12-20T01:37:11.866Z,6.72
2018-12-20T01:39:40.278Z,6.79
2018-12-20T01:42:08.476Z,6.77
2018-12-20T01:44:36.635Z,6.80
2018-12-20T01:47:04.897Z,6.79
2018-12-20T01:49:33.309Z,6.77
2018-12-20T01:52:01.496Z,6.73
2018-12-20T01:54:29.919Z,6.66
2018-12-20T01:56:58.263Z,6.70
2018-12-20T01:59:26.855Z,6.80
2018-12-20T02:01:55.099Z,6.79
2018-12-20T02:04:23.251Z,6.77
2018-12-20T02:06:51.432Z,6.73
2018-12-20T02:09:19.755Z,6.79
2018-12-20T02:11:48.089Z,6.82
2018-12-20T02:14:16.313Z,6.80
2018-12-20T02:16:44.662Z,6.72
2018-12-20T02:19:12.908Z,6.75
2018-12-20T02:21:41.209Z,6.76
2018-12-20T02:24:09.497Z,6.72
2018-12-20T02:26:38.101Z,6.72
2018-12-20T02:29:06.651Z,6.80
2018-12-20T02:31:35.024Z,6.79
2018-12-20T02:34:03.521Z,6.73
2018-12-20T02:36:32.122Z,6.81
2018-12-20T02:39:00.397Z,6.82
2018-12-20T02:41:28.950Z,6.84
2018-12-20T02:43:57.347Z,6.80
2018-12-20T02:46:25.760Z,6.81
2018-12-20T02:48:54.219Z,6.89
2018-12-20T02:51:22.761Z,6.88
2018-12-20T02:53:51.141Z,6.89
2018-12-20T02:56:19.521Z,6.83
2018-12-20T02:58:47.866Z,6.90
2018-12-20T03:01:16.221Z,6.84
2018-12-20T03:03:44.454Z,6.79
2018-12-20T03:06:12.997Z,6.86
2018-12-20T03:08:41.405Z,6.88
2018-12-20T03:11:09.917Z,6.86
2018-12-20T03:13:38.202Z,6.93
2018-12-20T03:16:06.431Z,6.87
2018-12-20T03:18:34.895Z,6.83
2018-12-20T03:21:03.638Z,6.86
2018-12-20T03:23:31.956Z,6.88
2018-12-20T03:26:00.475Z,6.80
2018-12-20T03:28:28.765Z,6.76
2018-12-20T03:30:57.156Z,6.73
2018-12-20T03:33:25.389Z,6.65
2018-12-20T03:35:54.160Z,6.63
2018-12-20T03:38:22.349Z,6.63
2018-12-20T03:40:50.769Z,6.64
2018-12-20T03:43:18.983Z,6.73
2018-12-20T03:45:47.146Z,6.68
2018-12-20T03:48:15.691Z,6.71
2018-12-20T03:50:44.126Z,6.68
2018-12-20T03:53:12.599Z,6.62
2018-12-20T03:55:40.836Z,6.62
2018-12-20T03:58:09.219Z,6.66
2018-12-20T04:00:37.532Z,6.63
2018-12-20T04:03:05.736Z,6.61
2018-12-20T04:05:33.895Z,6.60
2018-12-20T04:08:02.157Z,6.59
2018-12-20T04:10:30.400Z,6.60
2018-12-20T04:12:59.043Z,6.66
2018-12-20T04:15:27.357Z,6.71
2018-12-20T04:17:56.191Z,6.72
2018-12-20T04:20:24.491Z,6.75
2018-12-20T04:22:52.992Z,6.74
2018-12-20T04:25:21.418Z,6.84
2018-12-20T04:27:49.933Z,6.74
2018-12-20T04:30:18.514Z,6.68
2018-12-20T04:32:47.126Z,6.59
2018-12-20T04:35:15.454Z,6.58
2018-12-20T04:37:43.607Z,6.63
2018-12-20T04:40:11.876Z,6.59
2018-12-20T04:42:40.234Z,6.54
2018-12-20T04:45:08.892Z,6.49
2018-12-20T04:47:37.480Z,6.49
2018-12-20T04:50:06.142Z,6.49
2018-12-20T04:52:34.732Z,6.55
2018-12-20T04:55:03.491Z,6.51
2018-12-20T04:57:31.731Z,6.57
2018-12-20T05:00:00.430Z,6.60
2018-12-20T05:02:28.857Z,6.67
2018-12-20T05:04:57.389Z,6.72
2018-12-20T05:07:25.903Z,6.74
2018-12-20T05:09:54.184Z,6.72
2018-12-20T05:12:22.564Z,6.74
2018-12-20T05:14:51.015Z,6.83
2018-12-20T05:17:19.267Z,6.84
2018-12-20T05:19:47.584Z,6.85
2018-12-20T05:22:16.082Z,6.87
2018-12-20T05:24:44.417Z,6.84
2018-12-20T05:27:12.840Z,6.87
2018-12-20T05:29:41.164Z,6.91
2018-12-20T05:32:09.547Z,6.95
2018-12-20T05:34:37.826Z,6.88
2018-12-20T05:37:06.195Z,6.88
2018-12-20T05:39:34.645Z,6.83
2018-12-20T05:42:03.095Z,6.86
2018-12-20T05:44:31.260Z,6.85
2018-12-20T05:46:59.727Z,6.88
2018-12-20T05:49:27.991Z,6.96
2018-12-20T05:51:56.208Z,6.91
2018-12-20T05:54:24.497Z,6.89
2018-12-20T05:56:52.782Z,6.90
2018-12-20T05:59:21.335Z,6.94
2018-12-20T06:01:49.703Z,7.02
2018-12-20T06:04:17.876Z,6.95
2018-12-20T06:06:46.209Z,6.97
2018-12-20T06:09:14.769Z,7.08
2018-12-20T06:11:43.134Z,6.96
2018-12-20T06:14:11.685Z,6.90
2018-12-20T06:16:39.932Z,6.90
2018-12-20T06:19:08.408Z,6.93
2018-12-20T06:21:36.667Z,6.93
2018-12-20T06:24:04.903Z,6.97
2018-12-20T06:26:33.139Z,6.96
2018-12-20T06:29:01.291Z,6.96
2018-12-20T06:31:30.160Z,6.99
2018-12-20T06:33:58.419Z,7.01
2018-12-20T06:36:26.612Z,6.99
2018-12-20T06:38:54.828Z,6.97
2018-12-20T06:41:22.979Z,6.98
2018-12-20T06:43:51.228Z,6.88
2018-12-20T06:46:21.341Z,6.85
2018-12-20T06:48:49.796Z,6.88
2018-12-20T06:51:18.072Z,6.91
2018-12-20T06:53:46.391Z,6.95
2018-12-20T06:56:14.777Z,6.92
2018-12-20T06:58:43.047Z,6.90
2018-12-20T07:01:11.212Z,6.90
2018-12-20T07:03:39.458Z,6.95
2018-12-20T07:06:07.773Z,6.81
2018-12-20T07:08:36.068Z,7.05
2018-12-20T07:11:04.319Z,6.96
2018-12-20T07:13:32.669Z,6.95
2018-12-20T07:16:00.872Z,6.94
2018-12-20T07:18:29.034Z,7.01
2018-12-20T07:20:57.228Z,7.01
2018-12-20T07:23:25.419Z,7.07
2018-12-20T07:25:53.580Z,7.07
2018-12-20T07:28:22.668Z,7.01
2018-12-20T07:30:50.826Z,7.01
2018-12-20T07:33:19.039Z,7.10
2018-12-20T07:35:47.280Z,7.07
2018-12-20T07:38:15.443Z,7.09
2018-12-20T07:40:43.701Z,7.09
2018-12-20T07:43:11.866Z,7.16
2018-12-20T07:45:40.120Z,7.16
2018-12-20T07:48:08.293Z,7.16
2018-12-20T07:50:36.456Z,7.26
2018-12-20T07:53:04.735Z,7.33
2018-12-20T07:55:33.099Z,7.27
2018-12-20T07:58:01.262Z,7.22
2018-12-20T08:00:33.591Z,7.27
2018-12-20T08:03:01.949Z,7.24
2018-12-20T08:05:30.120Z,7.25
2018-12-20T08:07:58.279Z,7.32
2018-12-20T08:10:26.562Z,7.39
2018-12-20T08:12:54.839Z,7.28
2018-12-20T08:15:23.019Z,7.30
2018-12-20T08:17:51.287Z,7.32
2018-12-20T08:20:19.455Z,7.35
2018-12-20T08:22:47.613Z,7.38
2018-12-20T08:25:15.783Z,7.43
2018-12-20T08:27:44.308Z,7.52
2018-12-20T08:30:12.603Z,7.53
2018-12-20T08:32:40.764Z,7.48
2018-12-20T08:35:08.937Z,7.49
2018-12-20T08:37:37.092Z,7.58
2018-12-20T08:40:07.040Z,7.58
2018-12-20T08:42:35.289Z,7.63
2018-12-20T08:45:03.727Z,7.71
2018-12-20T08:47:32.013Z,7.79
2018-12-20T08:50:00.172Z,7.79
2018-12-20T08:52:28.427Z,7.87
2018-12-20T08:54:56.679Z,7.98
2018-12-20T08:57:24.860Z,8.02
2018-12-20T08:59:53.129Z,8.13
2018-12-20T09:02:21.420Z,8.17
2018-12-20T09:04:49.760Z,8.25
2018-12-20T09:07:17.920Z,8.37
2018-12-20T09:09:46.071Z,8.43
2018-12-20T09:12:14.232Z,8.54
2018-12-20T09:14:42.394Z,8.64
2018-12-20T09:17:10.552Z,8.74
2018-12-20T09:19:38.712Z,8.85
2018-12-20T09:22:06.972Z,8.92
2018-12-20T09:24:35.131Z,9.00
2018-12-20T09:27:03.291Z,9.06
2018-12-20T09:29:31.451Z,9.12
2018-12-20T09:31:59.692Z,9.17
2018-12-20T09:34:27.973Z,9.22
2018-12-20T09:36:56.210Z,9.26
2018-12-20T09:39:24.364Z,9.30
2018-12-20T09:41:52.536Z,9.33
2018-12-20T09:44:20.775Z,9.37
2018-12-20T09:46:48.953Z,9.40
2018-12-20T09:49:17.340Z,9.33
2018-12-20T09:51:45.520Z,9.52
2018-12-20T09:54:13.680Z,9.59
2018-12-20T09:56:41.924Z,9.66
2018-12-20T09:59:10.199Z,9.73
2018-12-20T10:01:38.349Z,9.81
2018-12-20T10:04:06.645Z,9.84
2018-12-20T10:06:34.832Z,9.84
2018-12-20T10:09:03.379Z,9.86
2018-12-20T10:11:31.532Z,9.90
2018-12-20T10:13:59.856Z,9.94
2018-12-20T10:16:28.012Z,9.98
2018-12-20T10:18:56.191Z,10.03
2018-12-20T10:21:24.436Z,10.04
2018-12-20T10:23:52.671Z,10.05
2018-12-20T10:26:20.839Z,10.07
2018-12-20T10:28:49.033Z,10.10
2018-12-20T10:31:17.461Z,10.12
2018-12-20T10:33:45.635Z,10.16
2018-12-20T10:36:13.856Z,10.20
2018-12-20T10:38:42.025Z,10.22
2018-12-20T10:41:10.176Z,10.25
2018-12-20T10:43:38.336Z,10.26
2018-12-20T10:46:06.620Z,10.27
2018-12-20T10:48:34.784Z,10.28
2018-12-20T10:51:03.122Z,10.30
2018-12-20T10:53:31.551Z,10.36
2018-12-20T10:55:59.712Z,10.37
2018-12-20T10:58:27.881Z,10.41
2018-12-20T11:01:01.864Z,10.44
2018-12-20T11:03:35.723Z,10.50
2018-12-20T11:06:08.816Z,10.56
2018-12-20T11:08:41.258Z,10.64
2018-12-20T11:11:15.484Z,10.67
2018-12-20T11:13:43.667Z,10.70
2018-12-20T11:16:12.132Z,10.76
2018-12-20T11:18:40.291Z,10.70
2018-12-20T11:21:08.451Z,10.69
2018-12-20T11:23:36.612Z,10.69
2018-12-20T11:26:04.799Z,10.67
2018-12-20T11:28:33.011Z,10.69
2018-12-20T11:31:01.187Z,10.72
2018-12-20T11:33:29.339Z,10.72
2018-12-20T11:35:57.647Z,10.71
2018-12-20T11:38:25.887Z,10.74
2018-12-20T11:40:54.758Z,10.78
2018-12-20T11:43:22.969Z,10.81
2018-12-20T11:45:51.128Z,10.85
2018-12-20T11:48:19.301Z,10.86
2018-12-20T11:50:47.455Z,10.86
2018-12-20T11:53:15.688Z,10.85
2018-12-20T11:55:43.855Z,10.83
2018-12-20T11:58:12.011Z,10.82
2018-12-20T12:00:40.179Z,10.83
2018-12-20T12:03:08.479Z,10.81
2018-12-20T12:05:36.720Z,10.81
2018-12-20T12:08:04.896Z,10.81
2018-12-20T12:10:33.063Z,10.82
2018-12-20T12:13:01.299Z,10.81
2018-12-20T12:15:29.477Z,10.76
2018-12-20T12:17:57.688Z,10.71
2018-12-20T12:20:25.935Z,10.64
2018-12-20T12:22:54.104Z,10.60
2018-12-20T12:25:22.264Z,10.53
2018-12-20T12:27:50.443Z,10.48
2018-12-20T12:30:18.636Z,10.45
2018-12-20T12:32:46.920Z,10.45
2018-12-20T12:35:15.107Z,10.44
2018-12-20T12:37:43.369Z,10.44
2018-12-20T12:40:11.636Z,10.44
2018-12-20T12:42:39.827Z,10.44
2018-12-20T12:45:08.123Z,10.41
2018-12-20T12:47:41.888Z,10.39
2018-12-20T12:50:10.154Z,10.37
2018-12-20T12:52:38.367Z,10.38
2018-12-20T12:55:06.641Z,10.39
2018-12-20T12:57:36.432Z,10.42
2018-12-20T13:00:06.028Z,10.39
2018-12-20T13:02:34.406Z,10.39
2018-12-20T13:05:02.710Z,10.40
2018-12-20T13:07:31.140Z,10.41
2018-12-20T13:09:59.431Z,10.44
2018-12-20T13:12:27.734Z,10.44
2018-12-20T13:14:56.000Z,10.46
2018-12-20T13:17:24.261Z,10.49
2018-12-20T13:19:52.555Z,10.52
2018-12-20T13:22:20.755Z,10.52
2018-12-20T13:24:49.001Z,10.55
2018-12-20T13:27:17.213Z,10.60
2018-12-20T13:29:45.494Z,10.64
2018-12-20T13:32:13.758Z,10.66
2018-12-20T13:34:41.959Z,10.74
2018-12-20T13:37:15.773Z,10.82
2018-12-20T13:39:40.563Z,10.92
2018-12-20T13:42:08.724Z,11.01
2018-12-20T13:44:36.916Z,11.11
2018-12-20T13:47:05.288Z,11.17
2018-12-20T13:49:33.477Z,11.21
2018-12-20T13:52:01.660Z,11.22
2018-12-20T13:54:29.911Z,11.24
2018-12-20T13:56:58.255Z,11.28
2018-12-20T13:59:26.564Z,11.32
2018-12-20T14:01:54.756Z,11.31
2018-12-20T14:04:23.019Z,11.27
2018-12-20T14:06:51.196Z,11.26
2018-12-20T14:09:19.921Z,11.22
2018-12-20T14:11:48.444Z,11.14
2018-12-20T14:14:16.703Z,11.12
2018-12-20T14:16:44.996Z,11.09
2018-12-20T14:19:13.187Z,11.08
2018-12-20T14:21:41.380Z,11.06
2018-12-20T14:24:09.764Z,10.99
2018-12-20T14:26:37.935Z,10.95
2018-12-20T14:29:06.180Z,10.87
2018-12-20T14:31:34.380Z,10.84
2018-12-20T14:34:02.627Z,10.81
2018-12-20T14:36:31.037Z,10.80
2018-12-20T14:38:59.350Z,10.79
2018-12-20T14:41:27.675Z,10.81
2018-12-20T14:43:55.880Z,10.81
2018-12-20T14:46:24.078Z,10.79
2018-12-20T14:48:52.259Z,10.76
2018-12-20T14:51:20.504Z,10.77
2018-12-20T14:53:48.704Z,10.78
2018-12-20T14:56:16.907Z,10.80
2018-12-20T14:58:45.096Z,10.78
2018-12-20T15:01:13.383Z,10.79
2018-12-20T15:03:41.620Z,10.81
2018-12-20T15:06:09.947Z,10.82
2018-12-20T15:08:38.233Z,10.81
2018-12-20T15:11:06.528Z,10.77
2018-12-20T15:13:34.832Z,10.77
2018-12-20T15:16:03.433Z,10.72
2018-12-20T15:18:31.623Z,10.70
2018-12-20T15:20:59.912Z,10.71
2018-12-20T15:23:28.182Z,10.69
2018-12-20T15:25:56.711Z,10.69
2018-12-20T15:28:24.896Z,10.69
2018-12-20T15:30:53.091Z,10.68
2018-12-20T15:33:21.297Z,10.67
2018-12-20T15:35:49.575Z,10.69
2018-12-20T15:38:17.776Z,10.70
2018-12-20T15:40:46.053Z,10.71
2018-12-20T15:43:14.360Z,10.71
2018-12-20T15:45:42.663Z,10.73
2018-12-20T15:48:10.944Z,10.70
2018-12-20T15:50:39.132Z,10.70
2018-12-20T15:53:07.340Z,10.69
2018-12-20T15:55:35.528Z,10.67
2018-12-20T15:58:03.816Z,10.66
2018-12-20T16:00:32.133Z,10.66
2018-12-20T16:03:00.404Z,10.66
2018-12-20T16:05:28.776Z,10.64
2018-12-20T16:08:01.139Z,10.64
2018-12-20T16:10:29.572Z,10.64
2018-12-20T16:12:58.655Z,10.67
2018-12-20T16:15:26.938Z,10.66
2018-12-20T16:17:55.283Z,10.68
2018-12-20T16:20:23.468Z,10.68
2018-12-20T16:22:51.713Z,10.69
2018-12-20T16:25:20.006Z,10.70
2018-12-20T16:27:48.404Z,10.70
2018-12-20T16:30:16.584Z,10.71
2018-12-20T16:32:44.888Z,10.72
2018-12-20T16:35:13.117Z,10.69
2018-12-20T16:37:41.357Z,10.68
2018-12-20T16:40:09.788Z,10.69
2018-12-20T16:42:37.981Z,10.71
2018-12-20T16:45:07.259Z,10.73
2018-12-20T16:47:35.544Z,10.72
2018-12-20T16:50:04.408Z,10.72
2018-12-20T16:52:32.587Z,10.73
2018-12-20T16:55:00.876Z,10.70
2018-12-20T16:57:29.060Z,10.67
2018-12-20T16:59:57.327Z,10.65
2018-12-20T17:02:25.592Z,10.66
2018-12-20T17:04:53.783Z,10.66
2018-12-20T17:07:22.052Z,10.67
2018-12-20T17:09:50.233Z,10.64
2018-12-20T17:12:18.421Z,10.61
2018-12-20T17:14:46.612Z,10.60
2018-12-20T17:17:14.799Z,10.57
2018-12-20T17:19:43.036Z,10.57
2018-12-20T17:22:11.263Z,10.59
2018-12-20T17:24:39.483Z,10.62
2018-12-20T17:27:08.740Z,10.62
2018-12-20T17:29:37.203Z,10.68
2018-12-20T17:32:05.423Z,10.65
2018-12-20T17:34:33.709Z,10.62
2018-12-20T17:37:01.906Z,10.55
2018-12-20T17:39:30.264Z,10.53
2018-12-20T17:41:58.560Z,10.49
2018-12-20T17:44:26.925Z,10.45
2018-12-20T17:46:55.116Z,10.42
2018-12-20T17:49:30.470Z,10.37
2018-12-20T17:51:53.709Z,10.32
2018-12-20T17:54:21.976Z,10.29
2018-12-20T17:56:50.376Z,10.26
2018-12-20T17:59:18.636Z,10.25
2018-12-20T18:01:46.927Z,10.24
2018-12-20T18:04:15.189Z,10.23
2018-12-20T18:06:43.380Z,10.22
2018-12-20T18:09:11.656Z,10.20
2018-12-20T18:11:40.036Z,10.19
2018-12-20T18:14:08.261Z,10.17
2018-12-20T18:16:36.483Z,10.14
2018-12-20T18:19:04.864Z,10.13
2018-12-20T18:21:33.424Z,10.18
2018-12-20T18:24:01.596Z,10.22
2018-12-20T18:26:29.923Z,10.25
2018-12-20T18:28:58.166Z,10.29
2018-12-20T18:31:26.369Z,10.29
2018-12-20T18:33:54.620Z,10.30
2018-12-20T18:36:22.876Z,10.31
2018-12-20T18:38:51.168Z,10.28
2018-12-20T18:41:19.451Z,10.25
2018-12-20T18:43:47.717Z,10.25
2018-12-20T18:46:15.984Z,10.26
2018-12-20T18:48:44.255Z,10.26
2018-12-20T18:51:12.524Z,10.24
2018-12-20T18:53:40.848Z,10.22
2018-12-20T18:56:09.232Z,10.22
2018-12-20T18:58:37.500Z,10.26
2018-12-20T19:01:05.883Z,10.33
2018-12-20T19:03:34.291Z,10.38
2018-12-20T19:06:02.564Z,10.37
2018-12-20T19:08:30.811Z,10.41
2018-12-20T19:10:59.101Z,10.44
2018-12-20T19:13:27.411Z,10.40
2018-12-20T19:15:55.646Z,10.41
2018-12-20T19:18:24.171Z,10.42
2018-12-20T19:20:52.359Z,10.43
2018-12-20T19:23:20.652Z,10.41
2018-12-20T19:25:49.019Z,10.42
2018-12-20T19:28:17.308Z,10.42
2018-12-20T19:30:45.496Z,10.45
2018-12-20T19:33:13.720Z,10.45
2018-12-20T19:35:41.971Z,10.46
2018-12-20T19:38:10.154Z,10.50
2018-12-20T19:40:38.561Z,10.52
2018-12-20T19:43:07.348Z,10.55
2018-12-20T19:45:35.532Z,10.56
2018-12-20T19:48:03.810Z,10.60
2018-12-20T19:50:31.998Z,10.63
2018-12-20T19:53:00.315Z,10.66
2018-12-20T19:55:28.655Z,10.67
2018-12-20T19:57:56.969Z,10.68
2018-12-20T20:00:25.216Z,10.73
2018-12-20T20:02:53.395Z,10.76
2018-12-20T20:05:21.588Z,10.78
2018-12-20T20:07:49.772Z,10.76
2018-12-20T20:10:18.416Z,10.78
2018-12-20T20:12:46.729Z,10.78
2018-12-20T20:15:16.696Z,10.78
2018-12-20T20:17:45.446Z,10.80
2018-12-20T20:20:14.486Z,10.81
2018-12-20T20:22:43.151Z,10.81
2018-12-20T20:25:11.532Z,10.79
2018-12-20T20:27:39.748Z,10.78
2018-12-20T20:30:13.520Z,10.80
2018-12-20T20:32:41.851Z,10.83
2018-12-20T20:35:10.176Z,10.83
2018-12-20T20:37:38.361Z,10.82
2018-12-20T20:40:08.843Z,10.78
2018-12-20T20:42:37.024Z,10.75
2018-12-20T20:45:06.449Z,10.72
2018-12-20T20:47:34.660Z,10.70
2018-12-20T20:50:03.072Z,10.65
2018-12-20T20:52:31.276Z,10.63
2018-12-20T20:54:59.495Z,10.62
2018-12-20T20:57:27.828Z,10.64
2018-12-20T20:59:56.088Z,10.69
2018-12-20T21:02:24.376Z,10.72
2018-12-20T21:04:52.567Z,10.75
2018-12-20T21:07:20.827Z,10.77
2018-12-20T21:09:49.208Z,10.80
2018-12-20T21:12:22.832Z,10.80
2018-12-20T21:14:52.452Z,10.82
2018-12-20T21:17:17.829Z,10.83
2018-12-20T21:19:46.079Z,10.87
2018-12-20T21:22:14.392Z,10.89
2018-12-20T21:24:42.603Z,10.90
2018-12-20T21:27:10.820Z,10.90
2018-12-20T21:29:39.008Z,10.90
2018-12-20T21:32:07.233Z,10.89
2018-12-20T21:34:35.477Z,10.88
2018-12-20T21:37:03.671Z,10.86
2018-12-20T21:39:31.851Z,10.87
2018-12-20T21:42:00.096Z,10.86
2018-12-20T21:44:28.371Z,10.87
2018-12-20T21:46:56.572Z,10.91
2018-12-20T21:49:24.756Z,10.90
2018-12-20T21:51:52.965Z,10.89
2018-12-20T21:54:21.171Z,10.85
2018-12-20T21:56:49.511Z,10.81
2018-12-20T21:59:17.710Z,10.76
2018-12-20T22:01:45.884Z,10.74
2018-12-20T22:04:14.072Z,10.71
2018-12-20T22:06:42.255Z,10.72
2018-12-20T22:09:10.456Z,10.73
2018-12-20T22:11:38.634Z,10.75
2018-12-20T22:14:06.824Z,10.76
2018-12-20T22:16:35.007Z,10.78
2018-12-20T22:19:03.212Z,10.78
2018-12-20T22:21:31.404Z,10.77
2018-12-20T22:23:59.601Z,10.80
2018-12-20T22:26:27.776Z,10.82
2018-12-20T22:28:55.967Z,10.84
2018-12-20T22:31:24.159Z,10.83
2018-12-20T22:33:52.343Z,10.83
2018-12-20T22:36:20.532Z,10.83
2018-12-20T22:38:48.723Z,10.87
2018-12-20T22:41:16.915Z,10.86
2018-12-20T22:43:45.117Z,10.88
2018-12-20T22:46:13.296Z,10.88
2018-12-20T22:48:41.492Z,10.88
2018-12-20T22:51:09.764Z,10.90
2018-12-20T22:53:37.967Z,10.93
2018-12-20T22:56:06.156Z,10.94
2018-12-20T22:58:34.364Z,10.98
2018-12-20T23:01:04.036Z,10.99
2018-12-20T23:03:32.308Z,11.01
2018-12-20T23:06:01.452Z,11.02
2018-12-20T23:08:30.040Z,11.04
2018-12-20T23:10:58.240Z,11.09
2018-12-20T23:13:26.426Z,11.09
2018-12-20T23:15:54.625Z,11.08
2018-12-20T23:18:22.895Z,11.11
2018-12-20T23:20:51.188Z,11.13
2018-12-20T23:23:19.363Z,11.15
2018-12-20T23:25:47.579Z,11.14
2018-12-20T23:28:15.756Z,11.15
2018-12-20T23:30:43.951Z,11.16
2018-12-20T23:33:12.135Z,11.18
2018-12-20T23:35:40.333Z,11.20
2018-12-20T23:38:08.519Z,11.20
2018-12-20T23:40:36.715Z,11.21
2018-12-20T23:43:04.901Z,11.20
2018-12-20T23:45:33.183Z,11.21
2018-12-20T23:48:01.372Z,11.19
2018-12-20T23:50:29.576Z,11.19
2018-12-20T23:52:57.765Z,11.20
2018-12-20T23:55:25.971Z,11.19
2018-12-20T23:57:54.321Z,11.19
